Time;durP1;ratioP1;P1;durP2;ratioP2;P2;SDS_P1;SDS_P2;PMS_P1;PMS_P2;Temp;Humidity;BMP_temperature;BMP_pressure;BME280_temperature;BME280_humidity;BME280_pressure;Samples;Min_cycle;Max_cycle;Signal;HPM_P1;HPM_P2
2023/03/28 00:01:10;;;;;;;84.35;77.62;;;;;;;-2.82;65.94;99847.18;1753809;81;25561;-68
2023/03/28 00:03:38;;;;;;;82.02;75.95;;;;;;;-2.87;66.06;99842.57;1753874;81;25533;-70
2023/03/28 00:06:11;;;;;;;62.35;57.27;;;;;;;-2.90;66.30;99842.23;1753997;81;25385;-68
2023/03/28 00:08:39;;;;;;;87.22;80.55;;;;;;;-2.91;66.40;99847.22;1754235;81;27545;-69
2023/03/28 00:11:17;;;;;;;60.17;55.20;;;;;;;-2.94;66.60;99847.19;1754287;81;25627;-68
2023/03/28 00:13:40;;;;;;;85.35;78.75;;;;;;;-2.95;66.35;99845.56;1753023;81;25635;-68
2023/03/28 00:16:11;;;;;;;84.87;78.40;;;;;;;-2.97;66.83;99848.16;1753829;81;26115;-71
2023/03/28 00:18:40;;;;;;;83.65;77.03;;;;;;;-2.99;66.96;99850.24;1728298;81;25658;-70
2023/03/28 00:21:26;;;;;;;61.05;56.70;;;;;;;-3.00;66.63;99846.77;1754154;81;27503;-70
2023/03/28 00:24:00;;;;;;;86.43;80.13;;;;;;;-3.02;67.10;99842.23;1753825;81;25374;-69
2023/03/28 00:26:29;;;;;;;84.83;78.33;;;;;;;-3.04;67.07;99843.78;1753857;81;25601;-68
2023/03/28 00:28:57;;;;;;;62.50;57.75;;;;;;;-3.04;67.16;99852.25;1753895;81;26099;-68
2023/03/28 00:31:25;;;;;;;83.58;77.17;;;;;;;-3.08;67.13;99847.94;1753842;81;25413;-68
2023/03/28 00:33:54;;;;;;;85.20;78.75;;;;;;;-3.10;67.31;99847.86;1753755;81;27543;-69
2023/03/28 00:36:25;;;;;;;61.98;57.43;;;;;;;-3.13;67.21;99839.88;1753868;81;25681;-69
2023/03/28 00:39:04;;;;;;;85.90;79.17;;;;;;;-3.13;67.23;99835.08;1753840;81;25731;-68
2023/03/28 00:41:35;;;;;;;87.97;81.17;;;;;;;-3.16;66.94;99836.36;1753268;81;25496;-68
2023/03/28 00:44:24;;;;;;;25.82;22.98;;;;;;;-3.20;67.12;99828.08;1753883;81;25562;-68
2023/03/28 00:46:53;;;;;;;8.33;4.70;;;;;;;-3.21;67.31;99830.43;1752141;81;27498;-69
2023/03/28 00:49:23;;;;;;;9.30;4.95;;;;;;;-3.22;67.07;99828.84;1750763;82;25544;-69
2023/03/28 00:51:58;;;;;;;11.03;4.75;;;;;;;-3.25;67.39;99827.97;1723168;82;25608;-69
2023/03/28 00:54:29;;;;;;;8.08;4.87;;;;;;;-3.27;67.67;99827.89;1750901;82;25510;-69
2023/03/28 00:57:00;;;;;;;12.25;5.83;;;;;;;-3.31;67.30;99826.22;1750927;82;25639;-69
2023/03/28 00:59:32;;;;;;;8.80;4.75;;;;;;;-3.38;67.32;99818.92;1750860;82;27486;-69
2023/03/28 01:02:00;;;;;;;10.08;4.35;;;;;;;-3.44;67.51;99818.00;1750744;82;25437;-69
2023/03/28 01:04:38;;;;;;;9.73;4.85;;;;;;;-3.50;67.73;99818.91;1750795;82;25552;-69
2023/03/28 01:07:06;;;;;;;12.98;5.33;;;;;;;-3.56;67.85;99815.83;1749600;82;29026;-69
2023/03/28 01:09:34;;;;;;;11.68;4.53;;;;;;;-3.59;67.57;99819.75;1750833;82;25619;-69
2023/03/28 01:12:02;;;;;;;9.45;4.62;;;;;;;-3.61;68.30;99819.18;1750824;81;27533;-69
2023/03/28 01:14:31;;;;;;;8.20;4.92;;;;;;;-3.63;67.83;99820.42;1750729;81;25438;-70
2023/03/28 01:16:57;;;;;;;6.80;4.33;;;;;;;-3.64;67.87;99824.11;1750966;82;25593;-70
2023/03/28 01:20:09;;;;;;;10.70;5.15;;;;;;;-3.66;68.07;99821.70;1750821;82;26080;-69
2023/03/28 01:22:49;;;;;;;8.40;4.97;;;;;;;-3.67;68.33;99822.72;1750929;81;25558;-70
2023/03/28 01:25:58;;;;;;;10.03;4.55;;;;;;;-3.71;67.90;99822.06;1749164;82;27470;-70
2023/03/28 01:28:32;;;;;;;8.93;4.60;;;;;;;-3.73;68.63;99819.64;1674915;85;25462;-70
2023/03/28 01:31:37;;;;;;;12.03;5.08;;;;;;;-3.76;68.83;99822.77;1674923;85;25623;-70
2023/03/28 01:34:55;;;;;;;12.40;5.40;;;;;;;-3.77;68.84;99815.33;1674814;85;25620;-69
2023/03/28 01:37:33;;;;;;;;;;;;;;;-3.79;69.31;99813.95;1677377;85;25649;-70
2023/03/28 01:40:35;;;;;;;9.98;5.20;;;;;;;-3.80;69.27;99811.84;1674858;85;28057;-69
2023/03/28 01:43:26;;;;;;;12.82;6.37;;;;;;;-3.83;69.24;99813.61;1674757;85;25593;-70
2023/03/28 01:46:09;;;;;;;10.53;5.12;;;;;;;-3.88;69.33;99804.23;1674387;85;25585;-70
2023/03/28 01:49:07;;;;;;;15.08;5.50;;;;;;;-3.97;69.32;99799.78;1674786;85;25640;-70
2023/03/28 01:52:01;;;;;;;6.60;3.90;;;;;;;-4.01;69.75;99801.77;1673648;85;25691;-69
2023/03/28 01:54:42;;;;;;;12.15;5.37;;;;;;;-4.03;69.94;99799.34;1674853;85;27537;-69
2023/03/28 01:57:20;;;;;;;12.30;6.00;;;;;;;-4.08;69.87;99791.81;1674757;85;25454;-69
2023/03/28 02:00:18;;;;;;;11.65;5.05;;;;;;;-4.14;69.84;99795.64;1711553;82;25583;-70
2023/03/28 02:02:57;;;;;;;9.90;5.28;;;;;;;-4.16;70.00;99792.92;1750818;82;25641;-70
2023/03/28 02:05:27;;;;;;;11.60;6.33;;;;;;;-4.19;69.98;99791.55;1750974;82;25615;-70
2023/03/28 02:07:57;;;;;;;13.35;5.60;;;;;;;-4.23;70.06;99786.92;1750942;82;27636;-70
2023/03/28 02:10:27;;;;;;;11.53;5.28;;;;;;;-4.28;70.16;99782.83;1750792;82;25702;-70
2023/03/28 02:13:11;;;;;;;10.63;4.97;;;;;;;-4.33;69.95;99780.85;1750840;82;25596;-70
2023/03/28 02:15:41;;;;;;;10.60;5.60;;;;;;;-4.34;69.90;99787.98;1750123;82;25555;-69
2023/03/28 02:18:13;;;;;;;9.90;4.67;;;;;;;-4.35;69.76;99796.13;1750872;82;25571;-69
2023/03/28 02:20:43;;;;;;;11.45;6.33;;;;;;;-4.38;69.79;99788.11;1750198;82;27458;-69
2023/03/28 02:23:23;;;;;;;13.48;5.30;;;;;;;-4.37;70.22;99799.50;1750824;82;25524;-69
2023/03/28 02:25:50;;;;;;;11.83;4.58;;;;;;;-4.38;70.21;99799.20;1750827;82;25623;-67
2023/03/28 02:28:20;;;;;;;11.83;5.17;;;;;;;-4.39;69.85;99788.34;1750757;82;25534;-68
2023/03/28 02:30:52;;;;;;;9.10;4.33;;;;;;;-4.40;70.89;99784.09;1750907;82;25583;-68
2023/03/28 02:33:41;;;;;;;10.05;4.78;;;;;;;-4.41;70.68;99789.91;1750846;82;28183;-69
2023/03/28 02:36:19;;;;;;;10.23;4.50;;;;;;;-4.42;71.10;99792.24;1750739;82;25541;-68
2023/03/28 02:39:09;;;;;;;9.33;5.20;;;;;;;-4.45;71.17;99789.24;1750142;82;25489;-68
2023/03/28 02:41:55;;;;;;;9.03;4.90;;;;;;;-4.47;71.38;99782.06;1750677;82;25727;-68
2023/03/28 02:44:32;;;;;;;10.53;4.72;;;;;;;-4.50;71.80;99771.42;1750162;82;25619;-69
2023/03/28 02:47:20;;;;;;;13.05;5.97;;;;;;;-4.54;71.50;99771.06;1751433;81;27493;-68
2023/03/28 02:49:59;;;;;;;9.83;5.33;;;;;;;-4.59;71.45;99782.00;1752357;81;25466;-69
2023/03/28 02:52:40;;;;;;;11.48;5.33;;;;;;;-4.62;71.88;99796.43;1754057;81;25531;-69
2023/03/28 02:55:30;;;;;;;8.13;4.40;;;;;;;-4.65;71.92;99788.16;1753922;81;25498;-69
2023/03/28 02:58:20;;;;;;;8.78;5.20;;;;;;;-4.67;72.15;99785.73;1753980;81;25446;-67
2023/03/28 03:00:50;;;;;;;11.20;5.15;;;;;;;-4.67;72.24;99783.61;1753967;81;27547;-67
2023/03/28 03:03:18;;;;;;;9.00;4.78;;;;;;;-4.70;72.67;99779.57;1753976;81;25391;-67
2023/03/28 03:05:45;;;;;;;11.78;5.03;;;;;;;-4.69;72.74;99775.91;1753812;81;25492;-67
2023/03/28 03:08:13;;;;;;;10.18;5.50;;;;;;;-4.70;72.95;99774.29;1753821;81;25634;-67
2023/03/28 03:10:40;;;;;;;11.83;5.28;;;;;;;-4.73;72.73;99775.55;1753859;81;25385;-67
2023/03/28 03:13:07;;;;;;;9.68;4.20;;;;;;;-4.73;72.67;99777.40;1753839;81;27403;-67
2023/03/28 03:15:34;;;;;;;12.37;5.12;;;;;;;-4.74;72.76;99773.93;1753743;81;25611;-69
2023/03/28 03:18:03;;;;;;;10.88;4.50;;;;;;;-4.73;73.46;99768.95;1753882;81;25577;-68
2023/03/28 03:20:33;;;;;;;9.25;4.45;;;;;;;-4.71;73.24;99764.78;1753817;81;25577;-69
2023/03/28 03:23:02;;;;;;;10.20;4.95;;;;;;;-4.71;73.28;99774.81;1753930;81;25454;-69
2023/03/28 03:25:30;;;;;;;11.40;4.60;;;;;;;-4.71;73.38;99774.02;1753992;81;33309;-69
2023/03/28 03:27:56;;;;;;;9.90;4.90;;;;;;;-4.71;73.69;99774.81;1753950;81;25563;-69
2023/03/28 03:30:22;;;;;;;12.58;5.22;;;;;;;-4.71;73.59;99762.94;1753879;81;25607;-68
2023/03/28 03:32:49;;;;;;;14.07;5.42;;;;;;;-4.73;73.61;99765.52;1753908;81;25552;-70
2023/03/28 03:35:15;;;;;;;19.30;6.17;;;;;;;-4.76;73.75;99759.36;1753892;81;25524;-69
2023/03/28 03:37:43;;;;;;;11.30;5.55;;;;;;;-4.77;73.93;99752.45;1753815;81;27541;-69
2023/03/28 03:40:11;;;;;;;17.12;7.22;;;;;;;-4.78;74.09;99745.59;1753798;81;25421;-69
2023/03/28 03:42:40;;;;;;;14.83;6.50;;;;;;;-4.79;74.28;99744.76;1754263;81;25563;-69
2023/03/28 03:45:10;;;;;;;11.93;6.12;;;;;;;-4.80;74.17;99740.53;1754209;81;25601;-69
2023/03/28 03:47:36;;;;;;;11.38;5.65;;;;;;;-4.78;74.29;99741.11;1754131;81;25455;-69
2023/03/28 03:50:06;;;;;;;17.32;6.75;;;;;;;-4.76;74.39;99743.53;1754128;81;27563;-69
2023/03/28 03:52:34;;;;;;;15.08;6.03;;;;;;;-4.74;74.71;99738.83;1754054;81;25556;-69
2023/03/28 03:55:01;;;;;;;12.13;6.47;;;;;;;-4.71;74.85;99744.98;1754041;81;25442;-69
2023/03/28 03:57:29;;;;;;;17.35;6.70;;;;;;;-4.68;75.07;99747.19;1754012;81;25614;-69
2023/03/28 03:59:56;;;;;;;13.32;6.58;;;;;;;-4.64;75.34;99747.55;1753886;81;25455;-69
2023/03/28 04:02:23;;;;;;;14.07;5.60;;;;;;;-4.61;75.40;99742.63;1753873;81;27424;-69
2023/03/28 04:04:49;;;;;;;12.68;5.75;;;;;;;-4.58;74.99;99747.47;1753836;81;25387;-69
2023/03/28 04:07:15;;;;;;;12.30;6.07;;;;;;;-4.56;75.03;99749.89;1753887;81;25690;-69
2023/03/28 04:09:41;;;;;;;13.93;6.22;;;;;;;-4.54;75.27;99754.42;1753789;81;25667;-68
2023/03/28 04:12:17;;;;;;;14.23;5.67;;;;;;;-4.53;75.40;99748.92;1753846;81;25517;-68
2023/03/28 04:14:43;;;;;;;20.23;7.35;;;;;;;-4.53;75.45;99740.17;1753900;81;27474;-67
2023/03/28 04:17:12;;;;;;;19.15;6.92;;;;;;;-4.52;75.62;99743.92;1753664;81;25520;-68
2023/03/28 04:19:38;;;;;;;12.30;6.28;;;;;;;-4.51;75.67;99747.39;1753795;81;25628;-69
2023/03/28 04:22:07;;;;;;;15.30;6.60;;;;;;;-4.50;75.88;99747.14;1753791;81;25850;-68
2023/03/28 04:24:36;;;;;;;15.10;7.08;;;;;;;-4.47;76.08;99743.78;1753917;81;25410;-69
2023/03/28 04:27:04;;;;;;;11.57;6.12;;;;;;;-4.45;76.14;99735.91;1753912;81;27657;-70
2023/03/28 04:29:30;;;;;;;14.58;5.55;;;;;;;-4.41;76.17;99738.91;1753738;81;25548;-71
2023/03/28 04:31:59;;;;;;;14.33;6.63;;;;;;;-4.38;76.27;99740.59;1753846;81;25833;-71
2023/03/28 04:34:30;;;;;;;18.27;6.92;;;;;;;-4.36;76.24;99739.88;1753930;81;25549;-69
2023/03/28 04:37:02;;;;;;;12.45;6.15;;;;;;;-4.34;76.21;99729.09;1753978;81;25382;-70
2023/03/28 04:39:36;;;;;;;14.38;7.87;;;;;;;-4.34;75.66;99733.05;1753871;81;27537;-71
2023/03/28 04:42:04;;;;;;;17.40;7.55;;;;;;;-4.35;76.12;99734.06;1753806;81;25695;-71
2023/03/28 04:44:30;;;;;;;20.95;12.18;;;;;;;-4.34;76.25;99747.05;1753807;81;25430;-71
2023/03/28 04:47:00;;;;;;;21.85;9.70;;;;;;;-4.28;76.63;99755.10;1753402;81;26257;-71
2023/03/28 04:49:27;;;;;;;22.85;9.55;;;;;;;-4.27;76.75;99745.64;1751108;82;25611;-71
2023/03/28 04:51:53;;;;;;;19.82;8.40;;;;;;;-4.21;76.84;99750.00;1752249;82;27429;-71
2023/03/28 04:54:20;;;;;;;15.93;8.70;;;;;;;-4.18;77.03;99740.84;1724717;82;25229;-71
2023/03/28 04:56:48;;;;;;;14.73;8.43;;;;;;;-4.14;76.83;99741.98;1752197;82;25169;-71
2023/03/28 04:59:17;;;;;;;18.73;9.48;;;;;;;-4.08;76.96;99739.78;1751029;81;25567;-71
2023/03/28 05:01:49;;;;;;;20.57;11.00;;;;;;;-4.01;77.15;99737.04;1751196;82;25481;-72
2023/03/28 05:04:22;;;;;;;21.75;11.83;;;;;;;-3.93;77.34;99747.29;1751085;82;28045;-73
2023/03/28 05:06:50;;;;;;;20.77;9.68;;;;;;;-3.87;77.46;99742.40;1750872;82;25537;-69
2023/03/28 05:09:18;;;;;;;18.20;8.35;;;;;;;-3.79;77.51;99742.59;1750893;82;25493;-69
2023/03/28 05:11:46;;;;;;;14.45;7.87;;;;;;;-3.71;77.66;99744.91;1750819;82;25647;-72
2023/03/28 05:14:12;;;;;;;22.98;9.50;;;;;;;-3.64;77.58;99746.12;1750878;82;25548;-69
2023/03/28 05:16:40;;;;;;;20.12;8.85;;;;;;;-3.58;77.36;99749.16;1750872;82;27499;-71
2023/03/28 05:19:08;;;;;;;16.02;9.13;;;;;;;-3.50;77.44;99742.22;1750746;82;25516;-72
2023/03/28 05:21:36;;;;;;;19.90;8.88;;;;;;;-3.43;77.68;99742.11;1750847;82;25455;-73
2023/03/28 05:24:03;;;;;;;20.92;8.73;;;;;;;-3.34;77.64;99747.33;1750817;82;25541;-72
2023/03/28 05:26:29;;;;;;;19.35;9.75;;;;;;;-3.23;77.66;99739.91;1750863;82;25356;-72
2023/03/28 05:28:55;;;;;;;18.30;8.25;;;;;;;-3.13;77.29;99741.16;1750822;82;27410;-71
2023/03/28 05:31:24;;;;;;;22.37;10.72;;;;;;;-3.08;77.38;99735.48;1750757;82;25493;-71
2023/03/28 05:33:52;;;;;;;14.55;8.63;;;;;;;-2.99;77.30;99742.53;1750797;82;25642;-71
2023/03/28 05:36:18;;;;;;;18.55;9.10;;;;;;;-2.94;76.89;99739.20;1750349;82;26069;-71
2023/03/28 05:38:44;;;;;;;21.23;9.38;;;;;;;-2.91;76.73;99736.89;1750354;82;25888;-71
2023/03/28 05:41:10;;;;;;;18.32;8.38;;;;;;;-2.82;76.79;99739.97;1750376;82;27509;-71
2023/03/28 05:43:37;;;;;;;13.22;7.55;;;;;;;-2.70;76.77;99734.65;1750272;82;25741;-72
2023/03/28 05:46:03;;;;;;;17.00;8.03;;;;;;;-2.54;76.97;99728.59;1750288;82;25776;-74
2023/03/28 05:48:30;;;;;;;13.68;7.67;;;;;;;-2.35;77.56;99730.55;1750147;81;25849;-74
2023/03/28 05:50:58;;;;;;;18.98;8.55;;;;;;;-2.10;77.24;99730.70;1750715;82;25615;-71
2023/03/28 05:53:24;;;;;;;18.92;8.73;;;;;;;-1.85;76.82;99725.56;1751071;82;27483;-69
2023/03/28 05:55:53;;;;;;;17.00;8.05;;;;;;;-1.65;75.91;99732.52;1751185;82;25433;-71
2023/03/28 05:58:19;;;;;;;14.28;7.85;;;;;;;-1.48;75.56;99730.36;1750972;82;25560;-70
2023/03/28 06:00:46;;;;;;;21.42;6.55;;;;;;;-1.34;75.38;99736.95;1750793;82;25498;-70
2023/03/28 06:03:18;;;;;;;12.47;7.05;;;;;;;-1.23;74.45;99737.35;1750546;82;25634;-71
2023/03/28 06:05:46;;;;;;;16.10;6.95;;;;;;;-1.12;73.67;99739.64;1750929;82;27533;-71
2023/03/28 06:08:14;;;;;;;13.28;6.40;;;;;;;-1.04;73.49;99741.87;1750959;82;25763;-75
2023/03/28 06:10:40;;;;;;;12.20;6.72;;;;;;;-0.97;73.10;99737.19;1751534;82;25564;-74
2023/03/28 06:13:07;;;;;;;16.50;7.65;;;;;;;-0.91;72.65;99747.34;1751351;82;25778;-74
2023/03/28 06:15:33;;;;;;;20.23;7.35;;;;;;;-0.86;72.66;99735.98;1750943;82;25603;-72
2023/03/28 06:17:59;;;;;;;14.87;7.03;;;;;;;-0.71;73.03;99744.67;1750840;82;27581;-76
2023/03/28 06:20:26;;;;;;;17.20;8.40;;;;;;;-0.60;72.72;99745.05;1750767;82;25801;-74
2023/03/28 06:22:52;;;;;;;14.70;7.75;;;;;;;-0.50;71.61;99743.05;1750862;82;25603;-73
2023/03/28 06:25:18;;;;;;;20.40;8.15;;;;;;;-0.47;71.02;99746.00;1750807;82;26082;-72
2023/03/28 06:27:45;;;;;;;18.73;7.92;;;;;;;-0.48;70.70;99746.25;1751016;82;25545;-73
2023/03/28 06:30:14;;;;;;;14.35;7.25;;;;;;;-0.47;70.92;99759.83;1750974;82;27491;-76
2023/03/28 06:32:40;;;;;;;18.70;8.68;;;;;;;-0.46;70.81;99764.89;1751061;82;25711;-73
2023/03/28 06:35:09;;;;;;;17.32;7.90;;;;;;;-0.40;70.97;99761.22;1751054;82;25381;-75
2023/03/28 06:37:36;;;;;;;17.07;8.25;;;;;;;-0.32;71.17;99761.83;1751135;82;25447;-75
2023/03/28 06:40:02;;;;;;;14.73;8.60;;;;;;;-0.22;71.00;99762.75;1751042;82;25627;-73
2023/03/28 06:42:28;;;;;;;20.80;8.95;;;;;;;-0.12;71.06;99762.57;1750996;82;27435;-74
2023/03/28 06:44:55;;;;;;;18.42;8.00;;;;;;;-0.03;70.77;99760.54;1750949;82;25602;-74
2023/03/28 06:47:21;;;;;;;16.02;8.63;;;;;;;0.07;71.24;99765.67;1750982;82;25529;-75
2023/03/28 06:49:47;;;;;;;20.15;9.25;;;;;;;0.22;71.19;99765.01;1749284;82;25474;-76
2023/03/28 06:52:14;;;;;;;23.05;11.05;;;;;;;0.38;71.18;99768.08;1727081;83;25628;-75
2023/03/28 06:54:40;;;;;;;18.80;9.85;;;;;;;0.51;71.15;99761.00;1757138;81;27506;-75
2023/03/28 06:57:06;;;;;;;25.45;10.58;;;;;;;0.62;70.98;99764.53;1757097;81;25404;-76
2023/03/28 06:59:33;;;;;;;24.32;11.00;;;;;;;0.67;70.35;99771.76;1757211;81;25411;-76
2023/03/28 07:01:59;;;;;;;19.85;10.00;;;;;;;0.66;70.26;99774.92;1757243;81;25497;-73
2023/03/28 07:04:25;;;;;;;21.37;13.00;;;;;;;0.63;70.34;99782.63;1757158;81;25468;-73
2023/03/28 07:06:51;;;;;;;23.02;11.45;;;;;;;0.64;70.45;99786.91;1757151;81;27520;-77
2023/03/28 07:09:18;;;;;;;25.80;12.53;;;;;;;0.64;70.84;99785.03;1757122;81;25503;-76
2023/03/28 07:11:44;;;;;;;23.10;11.65;;;;;;;0.70;71.14;99795.21;1757157;81;25534;-78
2023/03/28 07:14:11;;;;;;;19.62;11.12;;;;;;;0.75;71.28;99793.91;1757199;81;25444;-76
2023/03/28 07:16:37;;;;;;;20.15;10.50;;;;;;;0.84;72.01;99796.36;1757201;81;25663;-76
2023/03/28 07:19:03;;;;;;;23.42;13.53;;;;;;;0.99;72.02;99803.66;1757155;81;28167;-76
2023/03/28 07:21:30;;;;;;;21.87;12.75;;;;;;;1.11;71.69;99802.92;1757081;81;25473;-75
2023/03/28 07:23:56;;;;;;;24.72;12.13;;;;;;;1.18;71.52;99805.36;1757221;81;25602;-77
2023/03/28 07:26:23;;;;;;;27.10;13.32;;;;;;;1.19;71.10;99802.97;1757159;81;25642;-76
2023/03/28 07:28:50;;;;;;;24.55;12.45;;;;;;;1.19;71.07;99804.31;1757239;81;25391;-76
2023/03/28 07:31:17;;;;;;;22.22;12.25;;;;;;;1.19;70.98;99810.14;1757223;81;27530;-77
2023/03/28 07:33:43;;;;;;;21.93;12.15;;;;;;;1.22;71.18;99813.62;1757243;81;25711;-77
2023/03/28 07:36:14;;;;;;;21.15;11.43;;;;;;;1.23;71.01;99812.05;1757272;81;25522;-72
2023/03/28 07:38:41;;;;;;;21.48;11.65;;;;;;;1.24;71.04;99812.84;1757116;81;26041;-73
2023/03/28 07:41:08;;;;;;;21.75;11.48;;;;;;;1.17;70.87;99812.27;1757157;81;25622;-73
2023/03/28 07:43:35;;;;;;;23.70;11.05;;;;;;;1.09;70.68;99815.70;1757146;81;27468;-73
2023/03/28 07:46:12;;;;;;;23.75;11.28;;;;;;;1.00;70.98;99824.42;1757022;81;25538;-73
2023/03/28 07:48:40;;;;;;;23.22;12.88;;;;;;;0.94;70.98;99824.92;1756824;81;25610;-76
2023/03/28 07:51:09;;;;;;;25.57;12.47;;;;;;;0.91;71.23;99818.78;1756356;81;25548;-75
2023/03/28 07:53:37;;;;;;;;;;;;;;;0.88;71.37;99822.73;1759077;81;25535;-75
2023/03/28 07:56:09;;;;;;;19.00;11.12;;;;;;;0.90;71.72;99825.97;1745705;82;27543;-76
2023/03/28 07:58:33;;;;;;;21.97;11.65;;;;;;;0.89;71.77;99828.34;1745149;82;25595;-76
2023/03/28 08:01:10;;;;;;;22.45;11.55;;;;;;;0.86;71.75;99826.73;1745716;82;25583;-78
2023/03/28 08:03:38;;;;;;;22.48;11.38;;;;;;;0.85;71.73;99824.61;1745674;82;25648;-76
2023/03/28 08:06:08;;;;;;;24.10;11.40;;;;;;;0.82;71.97;99827.77;1745621;82;25662;-74
2023/03/28 08:08:35;;;;;;;21.10;10.38;;;;;;;0.82;72.08;99834.43;1745653;82;27528;-74
2023/03/28 08:11:01;;;;;;;21.55;11.53;;;;;;;0.81;72.21;99837.34;1745527;82;25701;-75
2023/03/28 08:13:27;;;;;;;22.15;10.55;;;;;;;0.81;72.21;99836.80;1716444;82;25494;-74
2023/03/28 08:15:55;;;;;;;21.95;10.68;;;;;;;0.80;72.40;99837.88;1745548;82;26060;-74
2023/03/28 08:18:24;;;;;;;24.77;12.43;;;;;;;0.85;72.66;99844.58;1746202;82;25662;-74
2023/03/28 08:21:00;;;;;;;16.95;10.20;;;;;;;0.87;72.61;99842.96;1746214;81;28186;-76
2023/03/28 08:23:28;;;;;;;20.20;11.38;;;;;;;0.87;72.51;99842.96;1745117;82;25814;-75
2023/03/28 08:26:04;;;;;;;28.02;11.22;;;;;;;0.87;72.37;99850.95;1745654;82;25532;-75
2023/03/28 08:28:37;;;;;;;18.85;11.63;;;;;;;0.90;72.76;99850.45;1745071;82;25632;-68
2023/03/28 08:31:14;;;;;;;24.85;11.70;;;;;;;0.97;72.89;99851.05;1744082;82;25741;-67
2023/03/28 08:33:43;;;;;;;22.85;11.57;;;;;;;1.03;72.77;99846.02;1744302;82;27582;-67
2023/03/28 08:36:14;;;;;;;14.87;8.08;;;;;;;1.08;73.06;99857.24;1745605;82;25548;-71
2023/03/28 08:38:43;;;;;;;24.10;11.65;;;;;;;1.21;73.23;99860.80;1745595;82;25393;-74
2023/03/28 08:41:39;;;;;;;18.23;11.12;;;;;;;1.33;73.07;99853.94;1744976;82;26082;-73
2023/03/28 08:44:50;;;;;;;23.87;12.60;;;;;;;1.42;73.00;99865.70;1745684;82;25600;-72
2023/03/28 08:47:29;;;;;;;19.12;10.70;;;;;;;1.48;72.62;99863.34;1730601;82;27484;-73
2023/03/28 08:50:04;;;;;;;11.13;7.63;;;;;;;1.62;72.61;99869.01;1711370;82;25649;-72
2023/03/28 08:52:31;;;;;;;18.52;11.10;;;;;;;1.73;72.49;99869.05;1703708;84;25460;-73
2023/03/28 08:55:34;;;;;;;20.48;12.60;;;;;;;1.82;71.93;99871.48;1704145;84;25631;-73
2023/03/28 08:58:03;;;;;;;19.10;10.43;;;;;;;1.89;72.32;99870.73;1704204;84;25485;-72
2023/03/28 09:00:35;;;;;;;32.58;29.35;;;;;;;2.64;77.03;99866.34;1704420;84;27538;-73
2023/03/28 09:03:06;;;;;;;23.15;20.25;;;;;;;3.63;75.16;99873.16;1704123;84;25471;-71
2023/03/28 09:05:53;;;;;;;22.50;11.45;;;;;;;4.05;72.85;99878.59;1680663;84;25550;-73
2023/03/28 09:08:30;;;;;;;19.10;11.88;;;;;;;4.16;70.97;99877.47;1704125;84;25658;-74
2023/03/28 09:11:25;;;;;;;30.95;27.80;;;;;;;4.28;69.35;99879.27;1704229;84;25598;-73
2023/03/28 09:14:24;;;;;;;90.20;82.95;;;;;;;4.27;68.56;99879.54;1704069;83;27598;-73
2023/03/28 09:17:25;;;;;;;57.55;52.93;;;;;;;4.21;68.17;99887.36;1704352;84;25615;-73
2023/03/28 09:20:20;;;;;;;41.05;37.35;;;;;;;4.40;68.28;99884.28;1751827;81;25622;-74
2023/03/28 09:23:00;;;;;;;55.52;51.45;;;;;;;5.35;67.95;99874.13;1751781;81;25647;-64
2023/03/28 09:25:44;;;;;;;25.50;22.82;;;;;;;5.53;65.67;99877.16;1751128;81;25663;-64
2023/03/28 09:28:19;;;;;;;86.78;80.42;;;;;;;5.47;64.74;99879.66;1751673;81;27563;-62
2023/03/28 09:30:49;;;;;;;88.80;82.02;;;;;;;5.35;64.06;99884.07;1751563;81;25657;-62
2023/03/28 09:33:21;;;;;;;88.52;81.65;;;;;;;5.23;63.52;99875.06;1751802;81;25655;-62
2023/03/28 09:35:49;;;;;;;86.97;80.47;;;;;;;5.28;65.65;99881.72;1750123;81;25554;-65
2023/03/28 09:38:30;;;;;;;88.42;81.85;;;;;;;5.97;65.82;99880.95;1751828;81;25480;-64
2023/03/28 09:41:00;;;;;;;87.25;80.55;;;;;;;6.24;64.38;99880.09;1702338;84;27527;-64
2023/03/28 09:43:53;;;;;;;87.92;81.15;;;;;;;6.24;62.77;99878.20;1703304;84;25834;-65
2023/03/28 09:46:30;;;;;;;87.70;80.80;;;;;;;6.05;61.94;99884.90;1703537;84;25667;-69
2023/03/28 09:48:57;;;;;;;105.85;96.17;;;;;;;5.85;61.39;99897.20;1672005;85;25650;-69
2023/03/28 09:51:23;;;;;;;109.25;99.62;;;;;;;5.61;61.07;99891.30;1687951;85;25618;-67
2023/03/28 09:53:50;;;;;;;100.33;87.55;;;;;;;5.32;60.77;99901.52;1703462;84;27561;-68
2023/03/28 09:56:30;;;;;;;14.20;7.80;;;;;;;4.97;60.91;99899.43;1691533;81;25503;-68
2023/03/28 09:59:05;;;;;;;10.30;6.10;;;;;;;4.58;60.68;99909.63;1743683;80;25462;-63
2023/03/28 10:01:38;;;;;;;12.90;7.12;;;;;;;4.20;61.67;99924.56;1757994;81;25650;-63
2023/03/28 10:04:12;;;;;;;14.58;8.35;;;;;;;3.84;62.92;99928.73;1758864;81;25452;-62
2023/03/28 10:06:41;;;;;;;13.20;9.08;;;;;;;3.53;64.30;99942.97;1732641;81;27629;-65
2023/03/28 10:09:18;;;;;;;17.48;10.55;;;;;;;3.14;65.38;99950.23;1758646;81;25452;-66
2023/03/28 10:11:59;;;;;;;18.60;10.70;;;;;;;2.84;66.56;99955.55;1758759;81;25413;-67
2023/03/28 10:14:47;;;;;;;16.37;10.50;;;;;;;2.51;67.73;99955.77;1758495;80;25805;-67
2023/03/28 10:17:22;;;;;;;18.73;10.65;;;;;;;2.28;68.48;99956.22;1758834;81;25481;-66
2023/03/28 10:19:50;;;;;;;17.30;10.80;;;;;;;2.13;69.49;99967.12;1721537;83;27500;-65
2023/03/28 10:22:28;;;;;;;16.30;10.35;;;;;;;1.97;69.01;99970.23;1737665;82;25597;-67
2023/03/28 10:24:56;;;;;;;19.45;10.93;;;;;;;1.85;69.03;99973.11;1788795;80;25574;-66
2023/03/28 10:27:37;;;;;;;22.60;11.85;;;;;;;1.72;68.77;99978.09;1788829;80;25583;-65
2023/03/28 10:30:30;;;;;;;20.40;11.25;;;;;;;1.59;69.00;99987.36;1766630;80;25573;-65
2023/03/28 10:33:26;;;;;;;20.92;11.93;;;;;;;1.54;69.44;99993.45;1788884;80;27559;-64
2023/03/28 10:36:09;;;;;;;17.12;10.98;;;;;;;1.55;69.94;99998.25;1788852;80;25357;-63
2023/03/28 10:38:43;;;;;;;22.87;12.53;;;;;;;1.58;70.34;99997.74;1788927;80;25537;-65
2023/03/28 10:41:18;;;;;;;20.43;11.73;;;;;;;1.57;70.41;100004.95;1788818;80;25600;-65
2023/03/28 10:43:44;;;;;;;23.98;13.53;;;;;;;1.54;70.44;100009.45;1788218;80;25593;-65
2023/03/28 10:46:16;;;;;;;21.42;12.07;;;;;;;1.43;70.27;100016.58;1788839;80;27528;-65
2023/03/28 10:48:50;;;;;;;22.80;12.85;;;;;;;1.28;70.36;100027.12;1788787;80;25464;-65
2023/03/28 10:51:21;;;;;;;20.10;11.40;;;;;;;1.14;70.04;100029.91;1787933;80;25548;-64
2023/03/28 10:54:06;;;;;;;20.70;11.48;;;;;;;0.98;70.19;100049.73;1788813;80;25545;-64
2023/03/28 10:56:40;;;;;;;21.57;11.30;;;;;;;0.88;70.37;100048.30;1788926;80;25626;-63
2023/03/28 10:59:45;;;;;;;14.23;9.28;;;;;;;0.84;70.96;100057.85;1788896;80;27464;-62
2023/03/28 11:02:48;;;;;;;15.30;7.90;;;;;;;0.80;70.86;100053.55;1788923;80;25590;-59
2023/03/28 11:05:30;;;;;;;88.35;82.42;;;;;;;0.78;70.48;100066.29;1788946;80;25529;-58
2023/03/28 11:08:19;;;;;;;16.97;15.10;;;;;;;0.75;69.78;100066.81;1788850;80;25698;-58
2023/03/28 11:11:21;;;;;;;66.40;61.95;;;;;;;0.77;68.23;100074.02;1789166;80;25561;-60
2023/03/28 11:13:59;;;;;;;84.25;78.42;;;;;;;0.80;69.04;100074.86;1776898;80;27008;-60
2023/03/28 11:17:06;;;;;;;69.80;65.40;;;;;;;0.87;68.64;100074.13;1788771;80;25389;-58
2023/03/28 11:19:58;;;;;;;93.10;86.90;;;;;;;1.01;68.91;100072.41;1788566;80;25401;-59
2023/03/28 11:22:35;;;;;;;82.97;77.53;;;;;;;1.12;68.21;100079.44;1784885;80;25558;-58
2023/03/28 11:25:43;;;;;;;86.15;80.65;;;;;;;1.17;68.00;100082.69;1784578;80;25395;-57
2023/03/28 11:28:27;;;;;;;98.10;92.40;;;;;;;1.21;67.99;100085.94;1785703;80;27556;-60
2023/03/28 11:30:58;;;;;;;92.22;86.20;;;;;;;1.23;67.73;100093.69;1784918;80;25569;-61
2023/03/28 11:33:30;;;;;;;126.80;118.97;;;;;;;1.21;66.91;100093.11;1759560;80;25579;-59
2023/03/28 11:36:08;;;;;;;142.83;134.43;;;;;;;1.18;67.20;100100.30;1785615;80;25851;-61
2023/03/28 11:38:46;;;;;;;106.22;99.85;;;;;;;1.14;67.18;100095.17;1784691;80;25458;-59
2023/03/28 11:41:18;;;;;;;90.90;85.63;;;;;;;1.11;67.24;100099.16;1785832;80;27541;-60
2023/03/28 11:44:02;;;;;;;90.57;84.57;;;;;;;1.11;67.39;100095.16;1785722;80;25597;-60
2023/03/28 11:46:57;;;;;;;122.20;111.57;;;;;;;1.15;67.43;100104.25;1785918;80;25537;-63
2023/03/28 11:49:29;;;;;;;121.93;114.03;;;;;;;1.21;67.34;100117.91;1666925;86;25452;-61
2023/03/28 11:52:10;;;;;;;99.20;92.83;;;;;;;1.29;66.83;100107.31;1666587;86;25601;-61
2023/03/28 11:54:57;;;;;;;102.67;96.43;;;;;;;1.40;66.53;100114.36;1666944;86;27412;-59